0TX1 – Local Weather Observations

Pecan Plantation / Sawgrass Ct

This weather station is operated by a private user located just north of the field. See WeatherUnderground for the full data feed and other nearby stations.

Last updated:
2018-07-18 22:15:14 (5:15 pm)

Temperature: 107.1 °F

Sunrise / Sunset: 6:35 am / 8:38 pm

Moonrise / Moonset: 12:41 pm / 12:19 am

Winds gusting from the South-Southeast at 0.0 mph

Nearby METARs

KGDJ 182155Z AUTO 13007KT 100V160 10SM SCT110 42/12 A2987 RMK AO2 T04180122

KCPT 182215Z AUTO 17007G13KT 10SM CLR 41/15 A2988 RMK AO2

KFWS 182150Z 19008KT 10SM SCT095 42/13 A2988